sensor_id;sensor_type;location;lat;lon;timestamp;pressure;altitude;pressure_sealevel;temperature;humidity
71666;BME280;59503;53.486;10.196;2022-12-26T00:01:20;100859.63;;;5.52;100.00
71666;BME280;59503;53.486;10.196;2022-12-26T00:03:46;100843.81;;;5.42;100.00
71666;BME280;59503;53.486;10.196;2022-12-26T00:06:18;100852.19;;;5.49;100.00
71666;BME280;59503;53.486;10.196;2022-12-26T00:08:44;100855.66;;;5.50;100.00
71666;BME280;59503;53.486;10.196;2022-12-26T00:11:11;100863.88;;;5.53;100.00
71666;BME280;59503;53.486;10.196;2022-12-26T00:13:37;100851.53;;;5.52;100.00
71666;BME280;59503;53.486;10.196;2022-12-26T00:16:09;100856.78;;;5.49;100.00
71666;BME280;59503;53.486;10.196;2022-12-26T00:18:35;100858.03;;;5.51;100.00
71666;BME280;59503;53.486;10.196;2022-12-26T00:21:01;100852.97;;;5.50;100.00
71666;BME280;59503;53.486;10.196;2022-12-26T00:23:26;100865.47;;;5.54;100.00
71666;BME280;59503;53.486;10.196;2022-12-26T00:25:52;100865.63;;;5.58;100.00
71666;BME280;59503;53.486;10.196;2022-12-26T00:28:17;100861.19;;;5.53;100.00
71666;BME280;59503;53.486;10.196;2022-12-26T00:30:43;100858.63;;;5.57;100.00
71666;BME280;59503;53.486;10.196;2022-12-26T00:33:08;100863.56;;;5.55;100.00
71666;BME280;59503;53.486;10.196;2022-12-26T00:35:33;100855.13;;;5.56;100.00
71666;BME280;59503;53.486;10.196;2022-12-26T00:37:59;100865.78;;;5.53;100.00
71666;BME280;59503;53.486;10.196;2022-12-26T00:40:24;100865.66;;;5.49;100.00
71666;BME280;59503;53.486;10.196;2022-12-26T00:42:50;100881.50;;;5.51;100.00
71666;BME280;59503;53.486;10.196;2022-12-26T00:45:15;100882.13;;;5.48;100.00
71666;BME280;59503;53.486;10.196;2022-12-26T00:47:40;100893.88;;;5.52;100.00
71666;BME280;59503;53.486;10.196;2022-12-26T00:50:06;100896.09;;;5.50;100.00
71666;BME280;59503;53.486;10.196;2022-12-26T00:52:32;100894.66;;;5.52;100.00
71666;BME280;59503;53.486;10.196;2022-12-26T00:54:57;100888.31;;;5.48;100.00
71666;BME280;59503;53.486;10.196;2022-12-26T00:57:22;100882.13;;;5.48;100.00
71666;BME280;59503;53.486;10.196;2022-12-26T00:59:48;100872.00;;;5.45;100.00
71666;BME280;59503;53.486;10.196;2022-12-26T01:02:13;100871.25;;;5.44;100.00
71666;BME280;59503;53.486;10.196;2022-12-26T01:04:57;100883.59;;;5.45;100.00
71666;BME280;59503;53.486;10.196;2022-12-26T01:07:23;100871.25;;;5.44;100.00
71666;BME280;59503;53.486;10.196;2022-12-26T01:09:48;100876.44;;;5.49;100.00
71666;BME280;59503;53.486;10.196;2022-12-26T01:12:13;100871.81;;;5.50;100.00
71666;BME280;59503;53.486;10.196;2022-12-26T01:14:39;100879.16;;;5.49;100.00
71666;BME280;59503;53.486;10.196;2022-12-26T01:17:04;100884.53;;;5.49;100.00
71666;BME280;59503;53.486;10.196;2022-12-26T01:19:30;100889.13;;;5.49;100.00
71666;BME280;59503;53.486;10.196;2022-12-26T01:21:55;100881.50;;;5.51;100.00
71666;BME280;59503;53.486;10.196;2022-12-26T01:24:20;100886.09;;;5.50;100.00
71666;BME280;59503;53.486;10.196;2022-12-26T01:26:46;100888.63;;;5.55;100.00
71666;BME280;59503;53.486;10.196;2022-12-26T01:29:12;100876.88;;;5.51;100.00
71666;BME280;59503;53.486;10.196;2022-12-26T01:31:37;100870.59;;;5.47;100.00
71666;BME280;59503;53.486;10.196;2022-12-26T01:34:02;100876.44;;;5.49;100.00
71666;BME280;59503;53.486;10.196;2022-12-26T01:36:28;100872.63;;;5.50;100.00
71666;BME280;59503;53.486;10.196;2022-12-26T01:38:53;100879.16;;;5.49;100.00
71666;BME280;59503;53.486;10.196;2022-12-26T01:41:19;100886.09;;;5.50;100.00
71666;BME280;59503;53.486;10.196;2022-12-26T01:43:48;100883.88;;;5.52;100.00
71666;BME280;59503;53.486;10.196;2022-12-26T01:46:15;100884.53;;;5.49;100.00
71666;BME280;59503;53.486;10.196;2022-12-26T01:48:41;100894.66;;;5.52;100.00
71666;BME280;59503;53.486;10.196;2022-12-26T01:51:06;100875.78;;;5.52;100.00
71666;BME280;59503;53.486;10.196;2022-12-26T01:53:36;100870.88;;;5.54;100.00
71666;BME280;59503;53.486;10.196;2022-12-26T01:56:07;100873.09;;;5.52;100.00
71666;BME280;59503;53.486;10.196;2022-12-26T01:58:38;100877.53;;;5.48;100.00
71666;BME280;59503;53.486;10.196;2022-12-26T02:01:05;100890.03;;;5.53;100.00
71666;BME280;59503;53.486;10.196;2022-12-26T02:03:33;100879.16;;;5.49;100.00
71666;BME280;59503;53.486;10.196;2022-12-26T02:06:18;100880.72;;;5.50;100.00
71666;BME280;59503;53.486;10.196;2022-12-26T02:08:44;100886.56;;;5.52;100.00
71666;BME280;59503;53.486;10.196;2022-12-26T02:11:19;100885.78;;;5.52;100.00
71666;BME280;59503;53.486;10.196;2022-12-26T02:13:46;100887.69;;;5.51;100.00
71666;BME280;59503;53.486;10.196;2022-12-26T02:16:14;100889.28;;;5.52;100.00
71666;BME280;59503;53.486;10.196;2022-12-26T02:18:40;100895.59;;;5.56;100.00
71666;BME280;59503;53.486;10.196;2022-12-26T02:41:31;100888.16;;;5.53;100.00
71666;BME280;59503;53.486;10.196;2022-12-26T02:44:21;100904.16;;;5.58;100.00
71666;BME280;59503;53.486;10.196;2022-12-26T02:47:34;100903.50;;;5.61;100.00
71666;BME280;59503;53.486;10.196;2022-12-26T02:50:10;100899.53;;;5.59;100.00
71666;BME280;59503;53.486;10.196;2022-12-26T02:53:26;100905.56;;;5.64;100.00
71666;BME280;59503;53.486;10.196;2022-12-26T02:56:20;100905.09;;;5.62;100.00
71666;BME280;59503;53.486;10.196;2022-12-26T02:59:19;100897.19;;;5.57;100.00
71666;BME280;59503;53.486;10.196;2022-12-26T03:02:07;100899.69;;;5.62;100.00
71666;BME280;59503;53.486;10.196;2022-12-26T03:04:59;100898.25;;;5.65;100.00
71666;BME280;59503;53.486;10.196;2022-12-26T03:07:45;100890.63;;;5.67;100.00
71666;BME280;59503;53.486;10.196;2022-12-26T03:10:49;100880.03;;;5.62;100.00
71666;BME280;59503;53.486;10.196;2022-12-26T03:13:35;100883.81;;;5.69;100.00
71666;BME280;59503;53.486;10.196;2022-12-26T03:16:08;100883.47;;;5.71;100.00
71666;BME280;59503;53.486;10.196;2022-12-26T03:19:04;100884.25;;;5.71;100.00
71666;BME280;59503;53.486;10.196;2022-12-26T03:21:39;100889.00;;;5.74;100.00
71666;BME280;59503;53.486;10.196;2022-12-26T03:24:09;100900.91;;;5.73;100.00
71666;BME280;59503;53.486;10.196;2022-12-26T03:26:39;100891.38;;;5.76;100.00
71666;BME280;59503;53.486;10.196;2022-12-26T03:29:12;100897.25;;;5.78;100.00
71666;BME280;59503;53.486;10.196;2022-12-26T03:32:00;100890.72;;;5.79;100.00
71666;BME280;59503;53.486;10.196;2022-12-26T03:34:26;100899.28;;;5.81;100.00
71666;BME280;59503;53.486;10.196;2022-12-26T03:37:20;100896.59;;;5.81;100.00
71666;BME280;59503;53.486;10.196;2022-12-26T03:39:56;100889.75;;;5.83;100.00
71666;BME280;59503;53.486;10.196;2022-12-26T03:42:59;100895.97;;;5.84;100.00
71666;BME280;59503;53.486;10.196;2022-12-26T03:46:11;100900.69;;;5.87;100.00
71666;BME280;59503;53.486;10.196;2022-12-26T03:49:24;100892.94;;;5.85;100.00
71666;BME280;59503;53.486;10.196;2022-12-26T03:52:24;100902.28;;;5.88;100.00
71666;BME280;59503;53.486;10.196;2022-12-26T04:01:23;100901.63;;;5.91;100.00
71666;BME280;59503;53.486;10.196;2022-12-26T04:04:10;100899.72;;;5.91;100.00
71666;BME280;59503;53.486;10.196;2022-12-26T04:07:05;100899.09;;;5.94;100.00
71666;BME280;59503;53.486;10.196;2022-12-26T04:10:01;100897.16;;;5.95;100.00
71666;BME280;59503;53.486;10.196;2022-12-26T04:12:48;100902.22;;;5.96;100.00
71666;BME280;59503;53.486;10.196;2022-12-26T04:16:03;100901.91;;;5.98;100.00
71666;BME280;59503;53.486;10.196;2022-12-26T04:25:00;100896.97;;;6.00;100.00
71666;BME280;59503;53.486;10.196;2022-12-26T04:27:46;100896.81;;;5.96;100.00
71666;BME280;59503;53.486;10.196;2022-12-26T04:30:32;100898.22;;;6.02;100.00
71666;BME280;59503;53.486;10.196;2022-12-26T04:33:23;100899.78;;;6.03;100.00
71666;BME280;59503;53.486;10.196;2022-12-26T04:36:15;100902.50;;;6.03;100.00
71666;BME280;59503;53.486;10.196;2022-12-26T04:39:04;100898.22;;;6.02;100.00
71666;BME280;59503;53.486;10.196;2022-12-26T04:41:52;100898.38;;;6.06;100.00
71666;BME280;59503;53.486;10.196;2022-12-26T04:44:39;100905.66;;;6.05;100.00
71666;BME280;59503;53.486;10.196;2022-12-26T04:47:04;100905.00;;;6.08;100.00
71666;BME280;59503;53.486;10.196;2022-12-26T04:49:40;100903.91;;;6.09;100.00
71666;BME280;59503;53.486;10.196;2022-12-26T04:52:25;100900.75;;;6.07;100.00
71666;BME280;59503;53.486;10.196;2022-12-26T04:55:10;100899.28;;;6.10;100.00
71666;BME280;59503;53.486;10.196;2022-12-26T04:57:35;100902.44;;;6.12;100.00
71666;BME280;59503;53.486;10.196;2022-12-26T05:00:01;100901.78;;;6.15;100.00
71666;BME280;59503;53.486;10.196;2022-12-26T05:02:26;100904.47;;;6.15;100.00
71666;BME280;59503;53.486;10.196;2022-12-26T05:05:10;100908.31;;;6.14;100.00
71666;BME280;59503;53.486;10.196;2022-12-26T05:07:54;100890.28;;;6.06;100.00
71666;BME280;59503;53.486;10.196;2022-12-26T05:10:38;100892.13;;;6.14;100.00
71666;BME280;59503;53.486;10.196;2022-12-26T05:13:04;100914.97;;;6.16;100.00
71666;BME280;59503;53.486;10.196;2022-12-26T05:15:29;100909.78;;;6.11;100.00
71666;BME280;59503;53.486;10.196;2022-12-26T05:18:15;100909.78;;;6.11;100.00
71666;BME280;59503;53.486;10.196;2022-12-26T05:21:00;100921.47;;;6.15;100.00
71666;BME280;59503;53.486;10.196;2022-12-26T05:23:45;100917.88;;;6.11;100.00
71666;BME280;59503;53.486;10.196;2022-12-26T05:26:30;100919.25;;;6.17;100.00
71666;BME280;59503;53.486;10.196;2022-12-26T05:29:14;100922.41;;;6.19;100.00
71666;BME280;59503;53.486;10.196;2022-12-26T05:31:39;100914.31;;;6.19;100.00
71666;BME280;59503;53.486;10.196;2022-12-26T05:34:05;100921.22;;;6.29;100.00
71666;BME280;59503;53.486;10.196;2022-12-26T05:36:39;100922.16;;;6.33;100.00
71666;BME280;59503;53.486;10.196;2022-12-26T05:39:05;100918.00;;;6.36;100.00
71666;BME280;59503;53.486;10.196;2022-12-26T05:41:31;100914.19;;;6.37;100.00
71666;BME280;59503;53.486;10.196;2022-12-26T05:43:57;100918.28;;;6.43;100.00
71666;BME280;59503;53.486;10.196;2022-12-26T05:46:22;100924.34;;;6.40;100.00
71666;BME280;59503;53.486;10.196;2022-12-26T05:48:48;100920.50;;;6.41;100.00
71666;BME280;59503;53.486;10.196;2022-12-26T05:51:13;100912.88;;;6.43;100.00
71666;BME280;59503;53.486;10.196;2022-12-26T05:53:39;100912.88;;;6.43;100.00
71666;BME280;59503;53.486;10.196;2022-12-26T05:56:08;100904.31;;;6.41;100.00
71666;BME280;59503;53.486;10.196;2022-12-26T05:58:34;100894.31;;;6.41;100.00
71666;BME280;59503;53.486;10.196;2022-12-26T06:03:33;100905.56;;;6.43;100.00
71666;BME280;59503;53.486;10.196;2022-12-26T06:06:00;100910.50;;;6.41;100.00
71666;BME280;59503;53.486;10.196;2022-12-26T06:08:25;100916.84;;;6.45;100.00
71666;BME280;59503;53.486;10.196;2022-12-26T06:10:51;100914.44;;;6.44;100.00
71666;BME280;59503;53.486;10.196;2022-12-26T06:13:16;100908.28;;;6.43;100.00
71666;BME280;59503;53.486;10.196;2022-12-26T06:15:42;100905.56;;;6.43;100.00
71666;BME280;59503;53.486;10.196;2022-12-26T06:18:10;100911.53;;;6.49;100.00
71666;BME280;59503;53.486;10.196;2022-12-26T06:20:39;100909.16;;;6.47;100.00
71666;BME280;59503;53.486;10.196;2022-12-26T06:23:05;100918.53;;;6.50;100.00
71666;BME280;59503;53.486;10.196;2022-12-26T06:25:30;100913.00;;;6.46;100.00
71666;BME280;59503;53.486;10.196;2022-12-26T06:27:56;100917.59;;;6.46;100.00
71666;BME280;59503;53.486;10.196;2022-12-26T06:30:22;100902.53;;;6.45;100.00
71666;BME280;59503;53.486;10.196;2022-12-26T06:32:47;100914.72;;;6.51;100.00
71666;BME280;59503;53.486;10.196;2022-12-26T06:35:12;100920.78;;;6.48;100.00
71666;BME280;59503;53.486;10.196;2022-12-26T06:37:38;100912.66;;;6.48;100.00
71666;BME280;59503;53.486;10.196;2022-12-26T06:40:04;100911.44;;;6.45;100.00
71666;BME280;59503;53.486;10.196;2022-12-26T06:42:30;100930.91;;;6.51;100.00
71666;BME280;59503;53.486;10.196;2022-12-26T06:44:55;100920.91;;;6.51;100.00
71666;BME280;59503;53.486;10.196;2022-12-26T06:47:20;100922.81;;;6.51;100.00
71666;BME280;59503;53.486;10.196;2022-12-26T06:49:46;100930.91;;;6.51;100.00
71666;BME280;59503;53.486;10.196;2022-12-26T06:52:11;100934.53;;;6.55;100.00
71666;BME280;59503;53.486;10.196;2022-12-26T06:54:38;100927.88;;;6.52;100.00
71666;BME280;59503;53.486;10.196;2022-12-26T06:57:04;100937.09;;;6.51;100.00
71666;BME280;59503;53.486;10.196;2022-12-26T06:59:29;100940.41;;;6.57;100.00
71666;BME280;59503;53.486;10.196;2022-12-26T07:01:54;100942.09;;;6.61;100.00
71666;BME280;59503;53.486;10.196;2022-12-26T07:04:20;100938.16;;;6.59;100.00
71666;BME280;59503;53.486;10.196;2022-12-26T07:06:45;100957.78;;;6.68;100.00
71666;BME280;59503;53.486;10.196;2022-12-26T07:09:13;100964.66;;;6.65;100.00
71666;BME280;59503;53.486;10.196;2022-12-26T07:11:44;100963.97;;;6.68;100.00
71666;BME280;59503;53.486;10.196;2022-12-26T07:14:10;100962.53;;;6.71;100.00
71666;BME280;59503;53.486;10.196;2022-12-26T07:16:37;100974.72;;;6.77;100.00
71666;BME280;59503;53.486;10.196;2022-12-26T07:19:03;100971.50;;;6.83;100.00
71666;BME280;59503;53.486;10.196;2022-12-26T07:21:29;100973.06;;;6.84;100.00
71666;BME280;59503;53.486;10.196;2022-12-26T07:23:55;100973.84;;;6.85;100.00
71666;BME280;59503;53.486;10.196;2022-12-26T07:26:22;100987.38;;;6.85;100.00
71666;BME280;59503;53.486;10.196;2022-12-26T07:28:47;100989.94;;;6.81;100.00
71666;BME280;59503;53.486;10.196;2022-12-26T07:31:17;100985.47;;;6.85;100.00
71666;BME280;59503;53.486;10.196;2022-12-26T07:33:46;100984.94;;;6.92;100.00
71666;BME280;59503;53.486;10.196;2022-12-26T07:36:12;100980.63;;;6.91;100.00
71666;BME280;59503;53.486;10.196;2022-12-26T07:38:38;100975.44;;;6.86;100.00
71666;BME280;59503;53.486;10.196;2022-12-26T07:41:03;100984.94;;;6.92;100.00
71666;BME280;59503;53.486;10.196;2022-12-26T07:43:49;100979.72;;;6.87;100.00
71666;BME280;59503;53.486;10.196;2022-12-26T07:46:14;100975.22;;;6.91;100.00
71666;BME280;59503;53.486;10.196;2022-12-26T07:48:39;100975.34;;;6.94;100.00
71666;BME280;59503;53.486;10.196;2022-12-26T07:51:05;100973.03;;;7.05;100.00
71666;BME280;59503;53.486;10.196;2022-12-26T07:53:30;100967.38;;;6.98;100.00
71666;BME280;59503;53.486;10.196;2022-12-26T07:55:59;100960.75;;;7.07;100.00
71666;BME280;59503;53.486;10.196;2022-12-26T07:58:25;100948.03;;;7.08;100.00
71666;BME280;59503;53.486;10.196;2022-12-26T08:00:50;100939.59;;;7.09;100.00
71666;BME280;59503;53.486;10.196;2022-12-26T08:03:16;100939.69;;;7.01;100.00
71666;BME280;59503;53.486;10.196;2022-12-26T08:05:45;100942.38;;;7.01;100.00
71666;BME280;59503;53.486;10.196;2022-12-26T08:08:12;100930.88;;;6.92;100.00
71666;BME280;59503;53.486;10.196;2022-12-26T08:10:37;100928.72;;;6.85;100.00
71666;BME280;59503;53.486;10.196;2022-12-26T08:13:02;100927.47;;;6.83;100.00
71666;BME280;59503;53.486;10.196;2022-12-26T08:15:28;100927.66;;;6.78;100.00
71666;BME280;59503;53.486;10.196;2022-12-26T08:17:53;100928.94;;;6.80;100.00
71666;BME280;59503;53.486;10.196;2022-12-26T08:20:19;100918.88;;;6.81;100.00
71666;BME280;59503;53.486;10.196;2022-12-26T08:22:44;100920.16;;;6.83;100.00
71666;BME280;59503;53.486;10.196;2022-12-26T08:25:10;100924.41;;;6.84;100.00
71666;BME280;59503;53.486;10.196;2022-12-26T08:27:35;100924.28;;;6.81;100.00
71666;BME280;59503;53.486;10.196;2022-12-26T08:30:01;100922.25;;;6.78;100.00
71666;BME280;59503;53.486;10.196;2022-12-26T08:32:26;100921.34;;;6.74;100.00
71666;BME280;59503;53.486;10.196;2022-12-26T08:34:52;100927.06;;;6.72;100.00
71666;BME280;59503;53.486;10.196;2022-12-26T08:37:18;100931.69;;;6.72;100.00
71666;BME280;59503;53.486;10.196;2022-12-26T08:39:43;100935.38;;;6.67;100.00
71666;BME280;59503;53.486;10.196;2022-12-26T08:42:09;100938.88;;;6.68;100.00
71666;BME280;59503;53.486;10.196;2022-12-26T08:44:34;100945.53;;;6.70;100.00
71666;BME280;59503;53.486;10.196;2022-12-26T08:47:00;100939.81;;;6.72;100.00
71666;BME280;59503;53.486;10.196;2022-12-26T08:49:26;100943.88;;;6.78;100.00
71666;BME280;59503;53.486;10.196;2022-12-26T08:51:51;100954.69;;;6.78;100.00
71666;BME280;59503;53.486;10.196;2022-12-26T08:54:17;100961.66;;;6.79;100.00
71666;BME280;59503;53.486;10.196;2022-12-26T08:56:42;100958.66;;;6.80;100.00
71666;BME280;59503;53.486;10.196;2022-12-26T08:59:08;100949.66;;;6.88;100.00
71666;BME280;59503;53.486;10.196;2022-12-26T09:01:33;100953.75;;;6.94;100.00
71666;BME280;59503;53.486;10.196;2022-12-26T09:04:00;100952.44;;;7.00;100.00
71666;BME280;59503;53.486;10.196;2022-12-26T09:06:27;100934.28;;;7.01;100.00
71666;BME280;59503;53.486;10.196;2022-12-26T09:08:53;100943.09;;;7.10;100.00
71666;BME280;59503;53.486;10.196;2022-12-26T09:11:21;100950.06;;;7.11;100.00
71666;BME280;59503;53.486;10.196;2022-12-26T09:13:47;100954.41;;;7.24;100.00
71666;BME280;59503;53.486;10.196;2022-12-26T09:16:16;100969.16;;;7.26;100.00
71666;BME280;59503;53.486;10.196;2022-12-26T09:18:44;100976.94;;;7.28;100.00
71666;BME280;59503;53.486;10.196;2022-12-26T09:21:11;100978.00;;;7.35;100.00
71666;BME280;59503;53.486;10.196;2022-12-26T09:23:37;100982.06;;;7.41;100.00
71666;BME280;59503;53.486;10.196;2022-12-26T09:26:11;100982.06;;;7.41;100.00
71666;BME280;59503;53.486;10.196;2022-12-26T09:28:37;100987.13;;;7.43;100.00
71666;BME280;59503;53.486;10.196;2022-12-26T09:31:06;100986.13;;;7.47;100.00
71666;BME280;59503;53.486;10.196;2022-12-26T09:33:32;100986.44;;;7.46;100.00
71666;BME280;59503;53.486;10.196;2022-12-26T09:36:06;100997.19;;;7.54;100.00
71666;BME280;59503;53.486;10.196;2022-12-26T09:38:33;100993.03;;;7.57;100.00
71666;BME280;59503;53.486;10.196;2022-12-26T09:43:37;100995.06;;;7.60;100.00
71666;BME280;59503;53.486;10.196;2022-12-26T09:49:56;100983.56;;;7.63;100.00
71666;BME280;59503;53.486;10.196;2022-12-26T09:55:05;100990.69;;;7.68;100.00
71666;BME280;59503;53.486;10.196;2022-12-26T09:57:43;101001.63;;;7.71;100.00
71666;BME280;59503;53.486;10.196;2022-12-26T10:00:16;100991.22;;;7.61;100.00
71666;BME280;59503;53.486;10.196;2022-12-26T10:02:46;101001.81;;;7.66;100.00
71666;BME280;59503;53.486;10.196;2022-12-26T10:05:14;100989.22;;;7.70;100.00
71666;BME280;59503;53.486;10.196;2022-12-26T10:07:47;100998.72;;;7.76;100.00
71666;BME280;59503;53.486;10.196;2022-12-26T10:10:18;100990.91;;;7.75;100.00
71666;BME280;59503;53.486;10.196;2022-12-26T10:16:15;100985.72;;;7.82;100.00
71666;BME280;59503;53.486;10.196;2022-12-26T10:24:23;100971.84;;;7.83;100.00
71666;BME280;59503;53.486;10.196;2022-12-26T10:26:55;100969.16;;;7.95;100.00
71666;BME280;59503;53.486;10.196;2022-12-26T10:29:32;100959.59;;;7.86;100.00
71666;BME280;59503;53.486;10.196;2022-12-26T10:37:27;100958.56;;;8.02;100.00
71666;BME280;59503;53.486;10.196;2022-12-26T10:42:39;100951.69;;;7.93;100.00
71666;BME280;59503;53.486;10.196;2022-12-26T10:45:38;100957.22;;;7.96;100.00
71666;BME280;59503;53.486;10.196;2022-12-26T10:48:11;100960.16;;;7.91;100.00
71666;BME280;59503;53.486;10.196;2022-12-26T10:50:38;100955.50;;;7.92;100.00
71666;BME280;59503;53.486;10.196;2022-12-26T10:53:06;100964.66;;;7.99;100.00
71666;BME280;59503;53.486;10.196;2022-12-26T10:55:33;100942.31;;;8.02;100.00
71666;BME280;59503;53.486;10.196;2022-12-26T10:58:28;100957.41;;;8.03;100.00
71666;BME280;59503;53.486;10.196;2022-12-26T11:00:50;100953.38;;;8.09;100.00
71666;BME280;59503;53.486;10.196;2022-12-26T11:03:18;100953.38;;;8.09;100.00
71666;BME280;59503;53.486;10.196;2022-12-26T11:05:47;100949.63;;;8.14;100.00
71666;BME280;59503;53.486;10.196;2022-12-26T11:08:31;100951.66;;;8.05;100.00
71666;BME280;59503;53.486;10.196;2022-12-26T11:11:19;100945.94;;;8.06;100.00
71666;BME280;59503;53.486;10.196;2022-12-26T11:13:54;100943.88;;;8.03;100.00
71666;BME280;59503;53.486;10.196;2022-12-26T11:16:29;100947.28;;;8.12;100.00
71666;BME280;59503;53.486;10.196;2022-12-26T11:18:56;100937.72;;;8.03;100.00
71666;BME280;59503;53.486;10.196;2022-12-26T11:21:25;100944.91;;;7.99;100.00
71666;BME280;59503;53.486;10.196;2022-12-26T11:24:09;100942.22;;;7.99;100.00
71666;BME280;59503;53.486;10.196;2022-12-26T11:26:36;100928.53;;;8.19;100.00
71666;BME280;59503;53.486;10.196;2022-12-26T11:31:48;100932.41;;;8.06;100.00
71666;BME280;59503;53.486;10.196;2022-12-26T11:34:17;100926.31;;;8.09;100.00
71666;BME280;59503;53.486;10.196;2022-12-26T11:36:47;100915.47;;;8.09;100.00
71666;BME280;59503;53.486;10.196;2022-12-26T11:39:26;100917.72;;;8.07;100.00
71666;BME280;59503;53.486;10.196;2022-12-26T11:41:53;100910.06;;;8.09;100.00
71666;BME280;59503;53.486;10.196;2022-12-26T11:44:21;100915.91;;;8.23;100.00
71666;BME280;59503;53.486;10.196;2022-12-26T11:46:51;100913.88;;;8.20;100.00
71666;BME280;59503;53.486;10.196;2022-12-26T11:49:26;100912.56;;;8.26;100.00
71666;BME280;59503;53.486;10.196;2022-12-26T11:51:54;100909.59;;;8.19;100.00
71666;BME280;59503;53.486;10.196;2022-12-26T11:56:48;100894.59;;;8.10;100.00
71666;BME280;59503;53.486;10.196;2022-12-26T11:59:20;100890.44;;;8.24;100.00
71666;BME280;59503;53.486;10.196;2022-12-26T12:01:45;100891.84;;;8.22;100.00
71666;BME280;59503;53.486;10.196;2022-12-26T12:04:11;100889.97;;;8.10;100.00
71666;BME280;59503;53.486;10.196;2022-12-26T12:07:02;100883.75;;;8.10;100.00
71666;BME280;59503;53.486;10.196;2022-12-26T12:09:52;100893.81;;;8.21;100.00
71666;BME280;59503;53.486;10.196;2022-12-26T12:12:27;100888.53;;;8.25;100.00
71666;BME280;59503;53.486;10.196;2022-12-26T12:25:30;100873.72;;;8.10;100.00
71666;BME280;59503;53.486;10.196;2022-12-26T12:31:01;100883.88;;;8.13;100.00
71666;BME280;59503;53.486;10.196;2022-12-26T12:36:11;100866.97;;;8.04;100.00
71666;BME280;59503;53.486;10.196;2022-12-26T12:38:59;100872.16;;;8.09;100.00
71666;BME280;59503;53.486;10.196;2022-12-26T12:52:25;100876.78;;;8.09;100.00
71666;BME280;59503;53.486;10.196;2022-12-26T12:55:13;100859.72;;;8.08;100.00
71666;BME280;59503;53.486;10.196;2022-12-26T13:00:17;100866.97;;;8.04;100.00
71666;BME280;59503;53.486;10.196;2022-12-26T13:02:53;100869.22;;;8.02;100.00
71666;BME280;59503;53.486;10.196;2022-12-26T13:05:54;100877.13;;;8.07;100.00
71666;BME280;59503;53.486;10.196;2022-12-26T13:08:30;100882.78;;;8.02;100.00
71666;BME280;59503;53.486;10.196;2022-12-26T13:11:07;100875.09;;;8.04;100.00
71666;BME280;59503;53.486;10.196;2022-12-26T13:13:41;100870.91;;;8.07;100.00
71666;BME280;59503;53.486;10.196;2022-12-26T13:16:14;100876.91;;;8.00;100.00
71666;BME280;59503;53.486;10.196;2022-12-26T13:19:00;100869.69;;;8.04;100.00
71666;BME280;59503;53.486;10.196;2022-12-26T13:21:28;100866.75;;;7.97;100.00
71666;BME280;59503;53.486;10.196;2022-12-26T13:24:03;100872.06;;;8.06;100.00
71666;BME280;59503;53.486;10.196;2022-12-26T13:29:40;100883.63;;;8.18;100.00
71666;BME280;59503;53.486;10.196;2022-12-26T13:32:27;100886.16;;;8.11;100.00
71666;BME280;59503;53.486;10.196;2022-12-26T13:34:55;100905.09;;;8.11;100.00
71666;BME280;59503;53.486;10.196;2022-12-26T13:42:37;100914.81;;;8.24;100.00
71666;BME280;59503;53.486;10.196;2022-12-26T13:55:49;100968.28;;;7.91;100.00
71666;BME280;59503;53.486;10.196;2022-12-26T14:01:51;100972.97;;;7.70;100.00
71666;BME280;59503;53.486;10.196;2022-12-26T14:07:09;101009.59;;;7.55;100.00
71666;BME280;59503;53.486;10.196;2022-12-26T14:09:56;101010.78;;;7.46;100.00
71666;BME280;59503;53.486;10.196;2022-12-26T14:15:49;101030.53;;;7.14;100.00
71666;BME280;59503;53.486;10.196;2022-12-26T14:29:49;101069.28;;;6.77;100.00
71666;BME280;59503;53.486;10.196;2022-12-26T14:41:00;101112.22;;;6.32;100.00
71666;BME280;59503;53.486;10.196;2022-12-26T14:43:31;101098.34;;;6.13;100.00
71666;BME280;59503;53.486;10.196;2022-12-26T14:46:07;101104.84;;;6.12;100.00
71666;BME280;59503;53.486;10.196;2022-12-26T14:48:53;101109.34;;;5.99;100.00
71666;BME280;59503;53.486;10.196;2022-12-26T14:53:45;101122.53;;;5.92;100.00
71666;BME280;59503;53.486;10.196;2022-12-26T14:56:33;101138.53;;;5.80;100.00
71666;BME280;59503;53.486;10.196;2022-12-26T15:01:48;101143.31;;;5.83;100.00
71666;BME280;59503;53.486;10.196;2022-12-26T15:07:25;101147.75;;;5.79;100.00
71666;BME280;59503;53.486;10.196;2022-12-26T15:23:34;101200.09;;;5.61;100.00
71666;BME280;59503;53.486;10.196;2022-12-26T15:29:00;101201.88;;;5.57;100.00
71666;BME280;59503;53.486;10.196;2022-12-26T15:31:40;101205.19;;;5.54;100.00
71666;BME280;59503;53.486;10.196;2022-12-26T15:56:10;101220.03;;;5.26;100.00
71666;BME280;59503;53.486;10.196;2022-12-26T16:01:40;101222.38;;;5.02;100.00
71666;BME280;59503;53.486;10.196;2022-12-26T16:09:43;101229.13;;;4.82;100.00
71666;BME280;59503;53.486;10.196;2022-12-26T16:17:38;101237.88;;;4.57;100.00
71666;BME280;59503;53.486;10.196;2022-12-26T16:20:31;101241.72;;;4.34;100.00
71666;BME280;59503;53.486;10.196;2022-12-26T16:23:23;101243.59;;;4.34;100.00
71666;BME280;59503;53.486;10.196;2022-12-26T16:25:52;101252.53;;;4.43;100.00
71666;BME280;59503;53.486;10.196;2022-12-26T16:28:24;101247.75;;;4.40;100.00
71666;BME280;59503;53.486;10.196;2022-12-26T16:30:50;101253.66;;;4.42;100.00
71666;BME280;59503;53.486;10.196;2022-12-26T16:33:16;101250.47;;;4.40;100.00